Time;durP1;ratioP1;P1;durP2;ratioP2;P2;SDS_P1;SDS_P2;PMS_P1;PMS_P2;Temp;Humidity;BMP_temperature;BMP_pressure;BME280_temperature;BME280_humidity;BME280_pressure;Samples;Min_cycle;Max_cycle;Signal;HPM_P1;HPM_P2
2022/06/25 00:01:12;;;;;;;3.93;3.30;;;20.10;99.90;;;;;;4152362;28;20743;-76
2022/06/25 00:03:15;;;;;;;4.87;3.30;;;20.10;99.90;;;;;;4162248;28;20218;-76
2022/06/25 00:05:29;;;;;;;3.57;3.10;;;20.10;99.90;;;;;;4154603;28;20281;-76
2022/06/25 00:07:31;;;;;;;4.63;3.20;;;20.10;99.90;;;;;;4160079;28;20310;-78
2022/06/25 00:09:32;;;;;;;3.80;3.33;;;20.00;99.90;;;;;;4158106;28;20209;-76
2022/06/25 00:13:53;;;;;;;4.70;3.57;;;20.00;99.90;;;;;;4157151;28;20651;-76
2022/06/25 00:15:55;;;;;;;7.47;3.70;;;20.00;99.90;;;;;;4158103;28;20243;-76
2022/06/25 00:17:57;;;;;;;4.20;3.50;;;20.00;99.90;;;;;;4159773;28;20295;-77
2022/06/25 00:20:00;;;;;;;3.83;3.20;;;20.00;99.90;;;;;;4155646;28;20246;-77
2022/06/25 00:22:02;;;;;;;3.90;3.30;;;20.00;99.90;;;;;;4161221;28;20245;-76
2022/06/25 00:24:05;;;;;;;4.17;3.20;;;20.00;99.90;;;;;;4158097;28;20202;-76
2022/06/25 00:26:07;;;;;;;4.53;3.10;;;19.90;99.90;;;;;;4151212;28;20278;-76
2022/06/25 00:28:08;;;;;;;4.63;3.40;;;19.90;99.90;;;;;;4160334;28;20207;-76
2022/06/25 00:30:11;;;;;;;4.33;3.40;;;19.90;99.90;;;;;;4151932;28;20289;-76
2022/06/25 00:32:12;;;;;;;3.87;3.30;;;19.90;99.90;;;;;;4150836;28;20233;-76
2022/06/25 00:34:14;;;;;;;5.13;3.37;;;19.80;99.90;;;;;;4159175;28;20699;-76
2022/06/25 00:36:17;;;;;;;7.20;3.60;;;19.80;99.90;;;;;;4158714;28;20228;-77
2022/06/25 00:38:19;;;;;;;4.13;3.33;;;19.80;99.90;;;;;;4159774;28;20305;-79
2022/06/25 00:40:21;;;;;;;4.83;3.23;;;19.80;99.90;;;;;;4158071;28;20249;-77
2022/06/25 00:42:23;;;;;;;3.60;2.70;;;19.80;99.90;;;;;;4160941;28;20748;-76
2022/06/25 00:44:25;;;;;;;6.40;3.17;;;19.80;99.90;;;;;;4155889;28;20218;-76
2022/06/25 00:46:27;;;;;;;4.23;3.20;;;19.80;99.90;;;;;;4156364;28;20226;-78
2022/06/25 00:48:30;;;;;;;5.70;3.43;;;19.80;99.90;;;;;;4152555;28;20312;-76
2022/06/25 00:50:32;;;;;;;5.30;3.40;;;19.80;99.90;;;;;;4153351;28;20295;-80
2022/06/25 00:52:39;;;;;;;4.17;3.63;;;19.80;99.90;;;;;;4156148;28;20300;-76
2022/06/25 00:54:45;;;;;;;5.50;4.00;;;19.80;99.90;;;;;;4154183;28;20608;-75
2022/06/25 00:56:50;;;;;;;6.50;4.10;;;19.70;99.90;;;;;;4153939;28;20306;-76
2022/06/25 00:58:53;;;;;;;5.43;3.80;;;19.70;99.90;;;;;;4155751;28;20209;-76
2022/06/25 01:00:55;;;;;;;7.37;4.17;;;19.70;99.90;;;;;;4153997;28;20247;-76
2022/06/25 01:02:57;;;;;;;5.03;4.10;;;19.70;99.90;;;;;;4151259;28;20245;-76
2022/06/25 01:04:59;;;;;;;6.00;4.00;;;19.60;99.90;;;;;;4155293;28;20210;-78
2022/06/25 01:07:01;;;;;;;10.10;4.53;;;19.60;99.90;;;;;;4152925;28;20621;-77
2022/06/25 01:09:04;;;;;;;4.87;3.87;;;19.60;99.90;;;;;;4154847;28;20277;-76
2022/06/25 01:11:07;;;;;;;9.37;4.03;;;19.60;99.90;;;;;;4153349;28;20234;-76
2022/06/25 01:13:09;;;;;;;6.20;4.03;;;19.60;99.90;;;;;;4156669;28;20309;-77
2022/06/25 01:15:16;;;;;;;6.77;3.73;;;19.50;99.90;;;;;;4156410;28;20240;-78
2022/06/25 01:17:17;;;;;;;7.17;4.10;;;19.60;99.90;;;;;;4152637;28;20214;-76
2022/06/25 01:19:19;;;;;;;5.57;4.07;;;19.50;99.90;;;;;;4153713;28;20554;-78
2022/06/25 01:21:21;;;;;;;7.50;4.30;;;19.50;99.90;;;;;;4151503;28;20765;-78
2022/06/25 01:24:13;;;;;;;6.97;4.50;;;19.50;99.90;;;;;;4149682;28;20216;-77
2022/06/25 01:27:05;;;;;;;6.27;3.90;;;19.40;99.90;;;;;;4149334;28;20381;-76
2022/06/25 01:29:58;;;;;;;6.37;4.10;;;19.40;99.90;;;;;;4155358;28;20492;-76
2022/06/25 01:32:49;;;;;;;5.83;3.83;;;19.40;99.90;;;;;;4153114;28;20785;-78
2022/06/25 01:35:41;;;;;;;7.17;4.53;;;19.40;99.90;;;;;;4155334;28;20319;-77
2022/06/25 01:38:34;;;;;;;5.97;4.40;;;19.30;99.90;;;;;;4155043;28;20663;-76
2022/06/25 01:41:25;;;;;;;9.27;4.87;;;19.30;99.90;;;;;;4152908;28;20236;-76
2022/06/25 01:44:18;;;;;;;10.67;5.00;;;19.30;99.90;;;;;;4154012;28;20233;-76
2022/06/25 01:47:09;;;;;;;7.43;4.80;;;19.20;99.90;;;;;;4151918;28;20411;-78
2022/06/25 01:50:01;;;;;;;6.93;4.97;;;19.20;99.90;;;;;;4147331;28;20203;-77
2022/06/25 01:52:53;;;;;;;7.00;4.80;;;19.20;99.90;;;;;;4149307;28;20233;-78
2022/06/25 01:55:46;;;;;;;8.03;4.23;;;19.20;99.90;;;;;;4156581;28;20213;-78
2022/06/25 01:58:38;;;;;;;7.70;4.13;;;19.20;99.90;;;;;;4154630;28;20218;-81
2022/06/25 02:01:30;;;;;;;7.40;4.67;;;19.10;99.90;;;;;;4154495;28;20807;-77
2022/06/25 02:04:23;;;;;;;5.57;4.30;;;19.10;99.90;;;;;;4154683;28;20321;-79
2022/06/25 02:07:15;;;;;;;4.93;4.03;;;19.10;99.90;;;;;;4151705;28;20243;-77
2022/06/25 02:10:07;;;;;;;4.60;4.13;;;19.10;99.90;;;;;;4157406;28;20217;-76
2022/06/25 02:12:59;;;;;;;5.03;3.90;;;19.00;99.90;;;;;;4158590;28;20229;-77
2022/06/25 03:59:51;;;;;;;5.17;3.17;;;19.10;99.90;;;;;;4155332;28;20180;-77
2022/06/25 04:01:53;;;;;;;7.97;3.47;;;19.00;99.90;;;;;;4154166;28;20227;-77
2022/06/25 04:03:55;;;;;;;6.00;3.80;;;19.00;99.90;;;;;;4164319;28;20204;-77
2022/06/25 04:05:57;;;;;;;5.53;3.70;;;19.00;99.90;;;;;;4165093;28;20286;-78
2022/06/25 04:07:59;;;;;;;6.00;4.00;;;18.90;99.90;;;;;;4155788;28;20219;-78
2022/06/25 04:10:01;;;;;;;7.30;4.10;;;18.90;99.90;;;;;;4155496;28;20209;-78
2022/06/25 04:12:03;;;;;;;6.23;4.40;;;18.90;99.90;;;;;;4153671;28;20311;-78
2022/06/25 04:14:06;;;;;;;8.17;4.13;;;18.90;99.90;;;;;;4158783;28;20207;-78
2022/06/25 04:16:09;;;;;;;10.10;4.33;;;18.80;99.90;;;;;;4161566;28;20239;-78
2022/06/25 04:18:11;;;;;;;5.40;3.80;;;18.80;99.90;;;;;;4155419;28;20247;-78
2022/06/25 04:20:13;;;;;;;5.83;4.03;;;18.80;99.90;;;;;;4162702;28;20669;-78
2022/06/25 04:22:15;;;;;;;5.43;4.17;;;18.80;99.90;;;;;;4164675;28;21017;-77
2022/06/25 04:24:17;;;;;;;4.53;3.90;;;18.80;99.90;;;;;;4165152;28;20214;-78
2022/06/25 04:26:19;;;;;;;6.73;4.03;;;18.80;99.90;;;;;;4161427;28;20221;-78
2022/06/25 04:30:40;;;;;;;6.27;4.10;;;18.80;99.90;;;;;;4163870;28;20227;-78
2022/06/25 04:32:43;;;;;;;6.03;3.90;;;18.80;99.90;;;;;;4158180;28;20295;-78
2022/06/25 04:34:45;;;;;;;6.07;3.50;;;18.80;99.90;;;;;;4155583;28;20291;-78
2022/06/25 04:36:47;;;;;;;5.73;3.80;;;18.80;99.90;;;;;;4164669;28;20209;-78
2022/06/25 04:38:50;;;;;;;3.60;3.20;;;18.90;99.90;;;;;;4146767;28;20244;-78
2022/06/25 04:40:52;;;;;;;6.80;3.93;;;18.80;99.90;;;;;;4159033;28;20223;-78
2022/06/25 04:42:53;;;;;;;5.67;3.90;;;18.90;99.90;;;;;;4164536;28;20279;-78
2022/06/25 04:44:55;;;;;;;7.80;4.17;;;18.90;99.90;;;;;;4163579;28;20215;-78
2022/06/25 04:46:57;;;;;;;7.23;3.77;;;18.90;99.90;;;;;;4160575;28;20241;-77
2022/06/25 04:49:00;;;;;;;6.43;4.13;;;19.00;99.90;;;;;;4160194;28;20685;-78
2022/06/25 04:51:02;;;;;;;4.73;3.63;;;19.00;99.90;;;;;;4161725;28;20811;-78
2022/06/25 04:53:05;;;;;;;7.43;3.73;;;19.00;99.90;;;;;;4160524;28;20291;-78
2022/06/25 04:55:07;;;;;;;7.47;3.57;;;19.00;99.90;;;;;;4153279;28;20293;-78
2022/06/25 04:57:09;;;;;;;8.17;3.77;;;19.00;99.90;;;;;;4159141;28;20224;-78
2022/06/25 04:59:11;;;;;;;8.40;3.43;;;19.00;99.90;;;;;;4156630;28;20214;-78
2022/06/25 05:01:13;;;;;;;4.50;3.30;;;19.00;99.90;;;;;;4143035;28;20327;-78
2022/06/25 05:03:15;;;;;;;5.10;3.13;;;19.00;99.90;;;;;;4163361;28;20221;-78
2022/06/25 05:05:18;;;;;;;3.57;3.07;;;19.10;99.90;;;;;;4161424;28;20965;-78
2022/06/25 05:07:20;;;;;;;6.47;3.13;;;19.10;99.90;;;;;;4160975;28;20220;-78
2022/06/25 05:09:22;;;;;;;5.03;3.33;;;19.10;99.90;;;;;;4159527;28;20209;-79
2022/06/25 05:11:24;;;;;;;5.53;3.13;;;19.20;99.90;;;;;;4158062;28;20250;-78
2022/06/25 05:13:26;;;;;;;6.90;3.13;;;19.10;99.90;;;;;;4155923;28;20721;-78
2022/06/25 05:15:28;;;;;;;5.53;3.07;;;19.20;99.90;;;;;;4150327;28;20296;-78
2022/06/25 05:17:30;;;;;;;3.67;2.47;;;19.20;99.90;;;;;;4155763;28;20298;-78
2022/06/25 05:19:32;;;;;;;3.17;2.53;;;19.30;99.90;;;;;;4152795;28;20244;-78
2022/06/25 05:21:35;;;;;;;3.17;2.87;;;19.30;99.90;;;;;;4160451;28;20746;-78
2022/06/25 05:23:37;;;;;;;3.60;2.83;;;19.20;99.90;;;;;;4163908;28;20601;-79
2022/06/25 05:25:39;;;;;;;3.37;2.73;;;19.40;99.90;;;;;;4158293;28;20630;-78
2022/06/25 05:27:41;;;;;;;2.80;2.50;;;19.40;99.90;;;;;;4162684;28;20290;-79
2022/06/25 05:29:43;;;;;;;4.97;2.67;;;19.40;99.90;;;;;;4163962;28;20212;-79
2022/06/25 05:31:45;;;;;;;7.40;2.87;;;19.40;99.90;;;;;;4159694;28;20230;-78
2022/06/25 05:33:47;;;;;;;4.07;2.40;;;19.40;99.90;;;;;;4163783;28;20551;-78
2022/06/25 05:35:48;;;;;;;2.97;2.37;;;19.40;99.90;;;;;;4163838;28;20287;-78
2022/06/25 05:37:52;;;;;;;5.13;2.40;;;19.40;99.90;;;;;;4158204;28;20198;-78
2022/06/25 05:39:54;;;;;;;5.73;2.70;;;19.50;99.90;;;;;;4155023;28;20316;-78
2022/06/25 05:41:55;;;;;;;3.13;2.10;;;19.40;99.90;;;;;;4163089;28;20242;-79
2022/06/25 05:43:57;;;;;;;3.50;2.30;;;19.50;99.90;;;;;;4159053;28;20724;-77
2022/06/25 05:45:59;;;;;;;3.27;2.40;;;19.50;99.90;;;;;;4161201;28;20218;-78
2022/06/25 05:48:01;;;;;;;3.77;2.37;;;19.60;99.90;;;;;;4163320;28;20576;-78
2022/06/25 05:50:04;;;;;;;4.37;2.13;;;19.50;99.90;;;;;;4141768;28;20210;-78
2022/06/25 05:52:06;;;;;;;2.17;1.97;;;19.50;99.90;;;;;;4145871;28;20226;-78
2022/06/25 05:54:10;;;;;;;4.63;2.13;;;19.60;99.90;;;;;;4163145;28;20241;-78
2022/06/25 05:56:11;;;;;;;3.30;1.80;;;19.60;99.90;;;;;;4159683;28;20242;-78
2022/06/25 05:58:13;;;;;;;2.63;1.67;;;19.60;99.90;;;;;;4163409;28;20291;-78
2022/06/25 06:00:16;;;;;;;4.20;2.40;;;19.70;99.90;;;;;;4159196;28;20215;-78
2022/06/25 06:02:18;;;;;;;4.83;2.30;;;19.60;99.90;;;;;;4162430;28;20227;-78
2022/06/25 06:04:20;;;;;;;2.97;2.30;;;19.70;99.90;;;;;;4163142;28;20214;-78
2022/06/25 06:06:21;;;;;;;2.50;1.93;;;19.60;99.90;;;;;;4162352;28;20574;-78
2022/06/25 06:08:23;;;;;;;4.17;2.20;;;19.70;99.90;;;;;;4163517;28;20215;-78
2022/06/25 06:10:26;;;;;;;2.17;1.80;;;19.70;99.90;;;;;;4159098;28;20218;-79
2022/06/25 06:12:28;;;;;;;2.27;1.87;;;19.70;99.90;;;;;;4162818;28;20220;-78
2022/06/25 06:14:30;;;;;;;2.33;1.90;;;19.70;99.90;;;;;;4159412;28;20288;-77
2022/06/25 06:16:33;;;;;;;3.33;2.10;;;19.70;99.90;;;;;;4154914;28;20274;-77
2022/06/25 06:18:34;;;;;;;3.20;2.00;;;19.60;99.90;;;;;;4158596;28;20294;-77
2022/06/25 06:20:36;;;;;;;5.83;2.20;;;19.60;99.90;;;;;;4152660;28;20210;-77
2022/06/25 06:22:38;;;;;;;2.27;1.93;;;19.70;99.90;;;;;;4161392;28;20618;-77
2022/06/25 06:24:40;;;;;;;5.03;2.47;;;19.70;99.90;;;;;;4158330;28;20244;-77
2022/06/25 06:26:43;;;;;;;3.73;2.00;;;19.70;99.90;;;;;;4159654;28;20632;-77
2022/06/25 06:28:45;;;;;;;3.13;1.83;;;19.60;99.90;;;;;;4157280;28;20216;-77
2022/06/25 06:30:47;;;;;;;2.90;2.30;;;19.70;99.90;;;;;;4161372;28;20236;-78
2022/06/25 06:32:49;;;;;;;2.40;2.17;;;19.70;99.90;;;;;;4159072;28;20207;-77
2022/06/25 06:34:51;;;;;;;3.70;2.10;;;19.70;99.90;;;;;;4162134;28;20561;-77
2022/06/25 06:36:52;;;;;;;4.63;2.20;;;19.70;99.90;;;;;;4156257;28;20571;-78
2022/06/25 06:38:54;;;;;;;4.23;2.30;;;19.80;99.90;;;;;;4155763;28;20690;-78
2022/06/25 06:40:56;;;;;;;3.60;2.13;;;19.70;99.90;;;;;;4160802;28;20593;-77
2022/06/25 06:43:00;;;;;;;3.60;2.00;;;19.80;99.90;;;;;;4144874;28;20317;-78
2022/06/25 06:45:02;;;;;;;3.33;2.10;;;19.80;99.90;;;;;;4156449;28;20208;-77
2022/06/25 06:47:04;;;;;;;3.20;1.83;;;19.70;99.90;;;;;;4152675;28;20210;-77
2022/06/25 06:49:05;;;;;;;2.60;2.00;;;19.70;99.90;;;;;;4161691;28;20566;-77
2022/06/25 06:51:08;;;;;;;2.30;2.00;;;19.80;99.90;;;;;;4162819;28;20262;-78
2022/06/25 06:53:10;;;;;;;3.53;1.77;;;19.80;99.90;;;;;;4158243;28;20252;-77
2022/06/25 06:55:12;;;;;;;4.27;2.10;;;19.90;99.90;;;;;;4156516;28;20319;-77
2022/06/25 06:57:14;;;;;;;3.93;2.23;;;19.90;99.90;;;;;;4160703;28;20559;-78
2022/06/25 06:59:18;;;;;;;2.87;1.97;;;19.90;99.90;;;;;;4159040;28;20212;-75
2022/06/25 07:01:20;;;;;;;4.43;1.90;;;19.90;99.90;;;;;;4153161;28;20241;-75
2022/06/25 07:03:22;;;;;;;3.83;2.07;;;20.00;99.90;;;;;;4156228;28;20246;-75
2022/06/25 07:05:24;;;;;;;2.47;1.97;;;20.00;99.90;;;;;;4158584;28;20288;-74
2022/06/25 07:07:26;;;;;;;2.80;2.47;;;20.10;99.90;;;;;;4164239;28;20285;-75
2022/06/25 07:09:28;;;;;;;2.67;2.17;;;20.10;99.90;;;;;;4161171;28;20224;-76
2022/06/25 07:11:30;;;;;;;2.37;2.13;;;20.20;99.90;;;;;;4161357;28;20621;-75
2022/06/25 07:13:32;;;;;;;2.40;2.20;;;20.20;99.90;;;;;;4158015;28;20194;-76
2022/06/25 07:15:35;;;;;;;3.53;2.33;;;20.30;99.90;;;;;;4159580;28;20293;-76
2022/06/25 07:17:37;;;;;;;3.30;2.77;;;20.30;99.90;;;;;;4163225;28;20567;-76
2022/06/25 07:19:39;;;;;;;4.03;2.33;;;20.40;99.90;;;;;;4159221;28;20199;-76
2022/06/25 07:21:41;;;;;;;3.40;2.33;;;20.40;99.90;;;;;;4159562;28;20309;-76
2022/06/25 07:23:46;;;;;;;3.67;2.73;;;20.50;99.90;;;;;;4159723;28;20222;-73
2022/06/25 07:25:48;;;;;;;3.77;2.60;;;20.60;99.90;;;;;;4162108;28;20220;-75
2022/06/25 07:27:50;;;;;;;3.57;2.57;;;20.70;99.90;;;;;;4165679;28;20601;-74
2022/06/25 07:29:52;;;;;;;3.07;2.77;;;20.70;99.90;;;;;;4165321;28;20229;-75
2022/06/25 07:31:56;;;;;;;4.60;3.23;;;20.80;99.90;;;;;;4165937;28;20883;-74
2022/06/25 07:33:58;;;;;;;3.20;2.53;;;20.90;99.90;;;;;;4165135;28;20210;-76
2022/06/25 07:36:00;;;;;;;2.77;2.57;;;21.00;99.90;;;;;;4161509;28;20218;-74
2022/06/25 07:38:02;;;;;;;3.23;2.63;;;21.00;99.90;;;;;;4161434;28;20206;-74
2022/06/25 07:40:04;;;;;;;4.33;2.70;;;21.00;99.90;;;;;;4159294;28;20230;-76
2022/06/25 07:42:09;;;;;;;3.30;3.00;;;21.10;99.90;;;;;;4163572;28;20219;-76
2022/06/25 07:44:12;;;;;;;3.30;2.97;;;21.20;99.90;;;;;;4164317;28;20211;-73
2022/06/25 07:46:14;;;;;;;3.57;2.97;;;21.20;99.90;;;;;;4164266;28;20629;-78
2022/06/25 07:48:17;;;;;;;5.47;3.20;;;21.30;99.90;;;;;;4162651;28;20590;-76
2022/06/25 07:52:39;;;;;;;4.70;2.80;;;21.40;99.90;;;;;;4160678;28;20644;-78
2022/06/25 07:54:40;;;;;;;5.00;3.20;;;21.40;99.90;;;;;;4159766;28;20237;-78
2022/06/25 07:56:42;;;;;;;3.93;3.00;;;21.50;99.90;;;;;;4159489;28;20576;-78
2022/06/25 07:58:44;;;;;;;5.17;3.23;;;21.60;99.90;;;;;;4159680;28;20211;-78
2022/06/25 08:00:46;;;;;;;3.30;3.00;;;21.60;99.90;;;;;;4160929;28;20249;-77
2022/06/25 08:02:48;;;;;;;3.70;3.10;;;21.70;99.90;;;;;;4163025;28;20218;-73
2022/06/25 08:04:51;;;;;;;4.50;3.53;;;21.70;99.90;;;;;;4159081;28;20196;-73
2022/06/25 08:06:55;;;;;;;3.87;3.40;;;21.80;99.90;;;;;;4159698;28;20208;-75
2022/06/25 08:08:59;;;;;;;3.83;3.23;;;21.90;99.90;;;;;;4158493;28;20232;-74
2022/06/25 08:11:01;;;;;;;4.03;3.43;;;22.00;99.90;;;;;;4162459;28;20906;-73
2022/06/25 08:13:03;;;;;;;4.80;3.43;;;22.00;99.90;;;;;;4162260;28;20206;-72
2022/06/25 08:15:07;;;;;;;5.63;3.10;;;22.10;99.90;;;;;;4153569;28;20205;-75
2022/06/25 08:17:08;;;;;;;3.20;2.90;;;22.20;99.90;;;;;;4156186;28;20264;-74
2022/06/25 08:19:10;;;;;;;4.47;3.07;;;22.30;99.90;;;;;;4159038;28;20212;-75
2022/06/25 08:21:14;;;;;;;4.73;3.70;;;22.40;99.90;;;;;;4157432;28;20241;-75
2022/06/25 08:23:21;;;;;;;3.47;3.00;;;22.50;99.90;;;;;;4159302;28;20228;-75
2022/06/25 08:25:23;;;;;;;4.33;3.20;;;22.60;99.90;;;;;;4160962;28;20209;-74
2022/06/25 08:27:25;;;;;;;3.63;3.00;;;22.70;99.90;;;;;;4161821;28;20201;-73
2022/06/25 08:29:27;;;;;;;4.97;3.67;;;22.70;99.90;;;;;;4164243;28;20215;-73
2022/06/25 08:31:29;;;;;;;3.30;3.00;;;22.80;99.90;;;;;;4164781;28;20837;-74
2022/06/25 08:33:31;;;;;;;3.27;2.97;;;22.80;99.90;;;;;;4163723;28;20216;-73
2022/06/25 08:35:33;;;;;;;4.33;3.37;;;22.80;99.90;;;;;;4164321;28;20206;-74
2022/06/25 08:37:39;;;;;;;4.90;3.23;;;22.90;99.90;;;;;;4163064;28;20197;-75
2022/06/25 08:39:41;;;;;;;3.37;2.83;;;22.90;99.90;;;;;;4156494;28;20209;-74
2022/06/25 08:41:43;;;;;;;3.70;3.27;;;22.90;99.90;;;;;;4159613;28;20619;-76
2022/06/25 08:43:44;;;;;;;3.77;3.23;;;22.90;99.90;;;;;;4157519;28;20593;-75
2022/06/25 08:45:46;;;;;;;4.40;3.63;;;23.00;99.90;;;;;;4157299;28;20211;-75
2022/06/25 08:47:50;;;;;;;3.57;3.27;;;23.00;99.90;;;;;;4158518;28;20214;-75
2022/06/25 08:49:53;;;;;;;4.57;3.53;;;23.00;99.90;;;;;;4158990;28;20674;-76
2022/06/25 08:51:57;;;;;;;3.10;2.80;;;23.10;99.90;;;;;;4160341;28;20229;-76
2022/06/25 08:54:03;;;;;;;3.47;3.10;;;23.20;99.90;;;;;;4156508;28;20257;-74
2022/06/25 08:56:05;;;;;;;3.30;3.00;;;23.30;99.90;;;;;;4159411;28;20292;-74
2022/06/25 08:58:09;;;;;;;3.40;3.10;;;23.40;99.90;;;;;;4155714;28;20204;-75
2022/06/25 09:00:12;;;;;;;3.90;3.50;;;23.50;99.90;;;;;;4157150;28;20214;-75
2022/06/25 09:02:14;;;;;;;4.37;3.10;;;23.60;99.90;;;;;;4165582;28;20310;-79
2022/06/25 09:04:16;;;;;;;6.13;3.47;;;23.60;99.90;;;;;;4164135;28;20250;-79
2022/06/25 09:06:21;;;;;;;3.83;3.10;;;23.60;99.90;;;;;;4163094;28;20226;-76
2022/06/25 09:08:22;;;;;;;3.33;3.03;;;23.60;99.90;;;;;;4157738;28;20235;-75
2022/06/25 09:10:27;;;;;;;3.40;2.93;;;23.70;99.90;;;;;;4159432;28;20257;-80
2022/06/25 09:12:29;;;;;;;3.00;2.77;;;23.70;99.90;;;;;;4153169;28;20250;-79
2022/06/25 09:14:34;;;;;;;3.07;2.63;;;23.80;99.90;;;;;;4164632;28;20736;-79
2022/06/25 09:16:36;;;;;;;4.00;2.93;;;23.90;99.90;;;;;;4145075;28;20215;-79
2022/06/25 09:18:38;;;;;;;3.60;2.57;;;24.10;99.90;;;;;;4164506;28;20238;-78
2022/06/25 09:20:55;;;;;;;2.87;2.57;;;24.20;99.90;;;;;;4163839;28;20247;-81
2022/06/25 09:22:59;;;;;;;2.80;2.43;;;24.40;99.90;;;;;;4159252;28;20276;-78
2022/06/25 09:25:00;;;;;;;2.50;2.30;;;24.50;99.90;;;;;;4164414;28;20302;-79
2022/06/25 09:27:04;;;;;;;4.37;2.90;;;24.60;99.90;;;;;;4142945;28;20217;-78
2022/06/25 09:29:06;;;;;;;3.13;2.60;;;24.60;99.90;;;;;;4134482;28;20200;-77
2022/06/25 09:31:08;;;;;;;3.73;2.63;;;24.70;99.90;;;;;;4153756;28;20310;-77
2022/06/25 09:33:10;;;;;;;4.03;2.30;;;24.60;99.90;;;;;;4159838;28;20203;-78
2022/06/25 09:35:13;;;;;;;7.47;2.60;;;24.60;99.90;;;;;;4162780;28;20257;-78
2022/06/25 09:37:20;;;;;;;3.90;2.27;;;24.60;99.90;;;;;;4160720;28;20552;-79
2022/06/25 09:39:22;;;;;;;2.90;2.50;;;24.60;99.90;;;;;;4161546;28;20253;-78
2022/06/25 09:41:25;;;;;;;3.07;2.50;;;24.50;99.90;;;;;;4163638;28;20603;-79
2022/06/25 09:43:30;;;;;;;3.07;2.67;;;24.50;99.90;;;;;;4157025;28;20262;-79
2022/06/25 09:45:37;;;;;;;2.70;2.50;;;24.50;99.90;;;;;;4156790;28;20215;-77
2022/06/25 09:47:40;;;;;;;2.73;2.50;;;24.50;99.90;;;;;;4162546;28;20700;-77
2022/06/25 09:49:42;;;;;;;3.60;2.30;;;24.50;99.90;;;;;;4140406;28;20243;-80
2022/06/25 09:51:45;;;;;;;2.60;2.17;;;24.60;99.90;;;;;;4163413;28;20239;-80
2022/06/25 09:53:50;;;;;;;3.30;2.63;;;24.60;99.90;;;;;;4158219;28;20199;-79
2022/06/25 09:55:52;;;;;;;2.63;2.20;;;24.70;99.90;;;;;;4161897;28;20207;-78
2022/06/25 09:57:54;;;;;;;2.50;2.30;;;24.80;99.50;;;;;;4162410;28;20199;-78
2022/06/25 10:00:00;;;;;;;2.70;2.50;;;24.80;99.30;;;;;;4163625;28;20203;-80
2022/06/25 10:02:04;;;;;;;3.00;2.23;;;25.00;99.70;;;;;;4158886;28;20239;-80
2022/06/25 10:04:06;;;;;;;2.50;2.30;;;25.00;99.40;;;;;;4167016;28;20223;-80
2022/06/25 10:06:07;;;;;;;2.87;2.27;;;25.00;98.80;;;;;;4163176;28;20207;-79
2022/06/25 10:08:12;;;;;;;2.93;2.03;;;25.00;98.90;;;;;;4142629;28;20219;-80
2022/06/25 10:10:19;;;;;;;2.73;2.17;;;25.00;98.40;;;;;;4163088;28;20278;-79
2022/06/25 10:12:20;;;;;;;2.37;2.17;;;25.00;98.40;;;;;;4156359;28;20207;-80
2022/06/25 10:14:23;;;;;;;2.40;2.20;;;24.90;98.50;;;;;;4144294;28;20218;-79
2022/06/25 10:16:29;;;;;;;2.30;2.10;;;25.00;99.20;;;;;;4157398;28;20208;-79
2022/06/25 10:18:32;;;;;;;3.70;3.10;;;24.90;99.50;;;;;;4163296;28;20691;-79
2022/06/25 10:20:34;;;;;;;2.87;2.40;;;24.90;99.20;;;;;;4163054;28;20200;-79
2022/06/25 10:22:38;;;;;;;4.30;2.50;;;25.00;98.40;;;;;;4160500;28;20212;-79
2022/06/25 10:24:40;;;;;;;4.03;2.50;;;25.00;98.00;;;;;;4160590;28;20226;-79
2022/06/25 10:26:43;;;;;;;3.17;2.60;;;25.10;95.70;;;;;;4150485;28;20249;-79
2022/06/25 10:28:46;;;;;;;2.83;2.50;;;25.20;95.40;;;;;;4160870;28;20214;-79
2022/06/25 10:30:49;;;;;;;2.70;2.47;;;25.40;94.00;;;;;;4160698;28;20595;-80
2022/06/25 10:32:57;;;;;;;2.37;2.17;;;25.50;94.00;;;;;;4159995;28;20679;-80
2022/06/25 10:35:01;;;;;;;2.20;2.00;;;25.70;93.80;;;;;;4155378;28;20207;-79
2022/06/25 10:37:03;;;;;;;2.10;1.90;;;25.80;92.30;;;;;;4162499;28;20755;-78
2022/06/25 10:39:35;;;;;;;2.20;2.00;;;25.90;92.40;;;;;;4160680;28;20217;-79
2022/06/25 10:43:59;;;;;;;2.20;2.00;;;26.10;80.70;;;;;;4127333;28;20235;-80
2022/06/25 10:46:21;;;;;;;2.23;2.00;;;26.20;79.80;;;;;;4167090;28;20560;-79
2022/06/25 10:48:24;;;;;;;2.03;1.80;;;26.30;68.40;;;;;;4167474;28;20578;-80
2022/06/25 10:50:31;;;;;;;2.13;1.80;;;26.40;71.60;;;;;;4161632;28;20673;-79
2022/06/25 10:52:32;;;;;;;2.10;1.60;;;26.50;69.00;;;;;;4163624;28;20213;-80
2022/06/25 10:54:39;;;;;;;1.80;1.60;;;26.60;65.90;;;;;;4165956;28;20291;-80
2022/06/25 10:56:46;;;;;;;1.87;1.77;;;26.70;59.80;;;;;;4165786;28;20214;-80
2022/06/25 10:58:49;;;;;;;2.03;1.87;;;26.80;62.30;;;;;;4162540;28;20207;-79
2022/06/25 11:00:53;;;;;;;1.47;1.37;;;26.90;57.80;;;;;;4159380;28;20223;-79
2022/06/25 11:02:55;;;;;;;2.00;1.80;;;27.10;59.10;;;;;;4142969;28;20267;-78
2022/06/25 11:04:59;;;;;;;3.37;2.00;;;27.10;58.50;;;;;;4158967;28;20219;-79
2022/06/25 11:07:09;;;;;;;3.33;1.63;;;27.10;57.80;;;;;;4166128;28;20731;-80
2022/06/25 11:09:14;;;;;;;2.13;1.80;;;27.20;57.40;;;;;;4165087;28;20660;-79
2022/06/25 11:11:25;;;;;;;1.70;1.60;;;27.20;55.00;;;;;;4162474;28;20230;-79
2022/06/25 11:13:27;;;;;;;2.10;1.50;;;27.40;56.40;;;;;;4166228;28;20207;-79
2022/06/25 11:15:39;;;;;;;1.97;1.77;;;27.40;54.20;;;;;;4161155;28;20903;-80
2022/06/25 11:17:43;;;;;;;1.60;1.50;;;27.50;54.80;;;;;;4166356;28;20215;-80
2022/06/25 11:19:44;;;;;;;1.80;1.50;;;27.60;53.10;;;;;;4166068;28;20211;-79
2022/06/25 11:21:49;;;;;;;1.70;1.60;;;27.80;54.10;;;;;;4165922;28;20261;-79
2022/06/25 11:23:51;;;;;;;1.50;1.40;;;27.90;53.00;;;;;;4166532;28;20579;-79
2022/06/25 11:30:34;;;;;;;2.53;1.53;;;28.50;51.30;;;;;;4165687;28;20279;-80
2022/06/25 11:32:42;;;;;;;1.37;1.27;;;28.50;48.70;;;;;;4162968;28;20215;-80
2022/06/25 11:34:44;;;;;;;1.40;1.30;;;28.70;46.60;;;;;;4162305;28;20285;-79
2022/06/25 11:36:56;;;;;;;1.58;1.40;;;28.80;47.10;;;;;;4165765;28;20207;-80
2022/06/25 11:38:58;;;;;;;1.92;1.60;;;28.90;45.80;;;;;;4160813;28;20221;-79
2022/06/25 11:41:00;;;;;;;2.67;1.60;;;29.00;45.30;;;;;;4164388;28;20242;-79
2022/06/25 11:43:07;;;;;;;2.08;1.60;;;29.10;45.20;;;;;;4162503;28;20644;-79
2022/06/25 11:45:09;;;;;;;1.80;1.50;;;29.30;45.60;;;;;;4158748;28;20227;-80
2022/06/25 11:47:13;;;;;;;1.83;1.30;;;29.50;45.70;;;;;;4165915;28;20203;-79
2022/06/25 11:49:16;;;;;;;1.73;1.50;;;29.60;45.70;;;;;;4160416;28;20214;-79
2022/06/25 11:51:24;;;;;;;1.58;1.48;;;29.80;43.60;;;;;;4161885;28;20258;-79
2022/06/25 11:53:28;;;;;;;1.90;1.60;;;30.00;43.90;;;;;;4163716;28;20202;-79
2022/06/25 11:55:30;;;;;;;1.85;1.45;;;30.10;43.10;;;;;;4162513;28;20254;-79
2022/06/25 11:57:40;;;;;;;1.70;1.60;;;30.20;43.00;;;;;;4168309;28;20209;-78
2022/06/25 11:59:42;;;;;;;1.83;1.38;;;30.30;42.00;;;;;;4164924;28;20206;-80
2022/06/25 12:01:49;;;;;;;2.05;1.48;;;30.40;41.50;;;;;;4162115;28;20235;-79
2022/06/25 12:03:51;;;;;;;2.08;1.48;;;30.70;41.90;;;;;;4142721;28;20224;-80
2022/06/25 12:05:54;;;;;;;2.58;1.15;;;30.90;41.20;;;;;;4165397;28;20202;-80
2022/06/25 12:07:57;;;;;;;1.88;1.40;;;31.30;40.90;;;;;;4158349;28;20665;-80
2022/06/25 12:10:02;;;;;;;1.50;1.30;;;31.40;40.50;;;;;;4158297;28;20683;-79
2022/06/25 12:12:04;;;;;;;1.80;1.40;;;31.80;40.10;;;;;;4164618;28;20231;-79
2022/06/25 12:14:06;;;;;;;3.30;1.40;;;32.10;38.80;;;;;;4163327;28;20628;-80
2022/06/25 12:16:08;;;;;;;2.88;1.40;;;32.40;38.80;;;;;;4160906;28;20250;-81
2022/06/25 12:18:10;;;;;;;1.48;1.38;;;32.70;38.50;;;;;;4162186;28;20215;-81
2022/06/25 12:20:13;;;;;;;1.80;1.20;;;33.00;37.90;;;;;;4159666;28;20290;-80
2022/06/25 12:22:22;;;;;;;1.23;1.10;;;33.20;36.30;;;;;;4161420;28;20226;-79
2022/06/25 12:24:24;;;;;;;1.65;1.20;;;33.40;36.20;;;;;;4165014;28;20222;-79
2022/06/25 12:26:29;;;;;;;1.35;1.10;;;33.60;35.90;;;;;;4160524;28;20218;-80
2022/06/25 12:28:35;;;;;;;1.85;1.15;;;33.80;35.50;;;;;;4163996;28;20201;-80
2022/06/25 12:30:37;;;;;;;2.42;1.40;;;34.10;35.20;;;;;;4162076;28;20207;-80
2022/06/25 12:32:41;;;;;;;1.27;1.10;;;34.40;34.50;;;;;;4162942;28;20230;-80
2022/06/25 12:34:50;;;;;;;1.30;1.20;;;34.40;33.10;;;;;;4150259;28;20699;-80
2022/06/25 12:36:53;;;;;;;1.70;1.20;;;34.70;33.50;;;;;;4162218;28;20231;-80
2022/06/25 12:38:55;;;;;;;1.70;1.30;;;35.00;33.10;;;;;;4167698;28;20215;-80
2022/06/25 12:40:56;;;;;;;1.63;1.20;;;35.20;33.00;;;;;;4161029;28;20233;-80
2022/06/25 12:43:01;;;;;;;1.23;1.08;;;35.40;32.70;;;;;;4161497;28;20216;-80
2022/06/25 12:45:05;;;;;;;3.00;1.00;;;35.50;32.70;;;;;;4163364;28;20211;-80
2022/06/25 12:47:09;;;;;;;1.30;1.20;;;35.80;32.50;;;;;;4160251;28;20220;-79
2022/06/25 12:49:12;;;;;;;1.88;1.00;;;35.90;31.70;;;;;;4153414;28;20291;-79
2022/06/25 12:51:16;;;;;;;1.40;1.20;;;35.80;31.50;;;;;;4141608;28;20293;-79
2022/06/25 12:53:18;;;;;;;0.93;0.90;;;36.00;32.10;;;;;;4152879;28;20203;-79